Time;durP1;ratioP1;P1;durP2;ratioP2;P2;SDS_P1;SDS_P2;PMS_P1;PMS_P2;Temp;Humidity;BMP_temperature;BMP_pressure;BME280_temperature;BME280_humidity;BME280_pressure;Samples;Min_cycle;Max_cycle;Signal;HPM_P1;HPM_P2
2022/11/24 00:02:49;;;;;;;13.63;3.78;;;;;;;8.26;100.00;98939.94;12206316;19;20022;-83
2022/11/24 00:06:52;;;;;;;12.63;4.00;;;;;;;8.29;100.00;98942.16;12205499;19;20011;-83
2022/11/24 00:10:54;;;;;;;12.83;3.33;;;;;;;8.26;100.00;98946.25;12182356;19;20002;-83
2022/11/24 00:14:55;;;;;;;9.77;3.67;;;;;;;8.26;100.00;98940.75;12208349;19;20052;-83
2022/11/24 00:18:58;;;;;;;18.05;2.80;;;;;;;8.30;100.00;98946.56;12209319;19;20011;-85
2022/11/24 00:23:00;;;;;;;12.70;3.33;;;;;;;8.34;100.00;98940.31;12190104;19;20007;-83
2022/11/24 00:27:02;;;;;;;13.27;3.20;;;;;;;8.36;100.00;98946.38;12263353;19;20031;-82
2022/11/24 00:31:12;;;;;;;9.02;2.70;;;;;;;8.44;100.00;98954.19;12269608;19;19998;-84
2022/11/24 00:35:17;;;;;;;12.65;3.20;;;;;;;8.53;100.00;98956.47;12206710;19;20078;-83
2022/11/24 00:39:19;;;;;;;12.65;2.88;;;;;;;8.57;100.00;98965.88;12209534;19;20014;-84
2022/11/24 00:43:21;;;;;;;10.80;2.97;;;;;;;8.57;100.00;98965.88;12190513;19;20018;-84
2022/11/24 00:47:22;;;;;;;13.13;3.80;;;;;;;8.57;100.00;98963.97;12219217;19;20014;-84
2022/11/24 00:51:26;;;;;;;8.38;2.80;;;;;;;8.58;100.00;98981.25;12219412;19;20011;-83
2022/11/24 00:55:28;;;;;;;12.18;3.05;;;;;;;8.62;100.00;98966.75;12201293;19;20086;-83
2022/11/24 00:59:31;;;;;;;13.00;3.50;;;;;;;8.67;100.00;98987.94;12220094;19;20523;-83
2022/11/24 01:03:33;;;;;;;;;;;;;;;8.71;100.00;98983.59;12222495;19;20006;-84
2022/11/24 01:07:34;;;;;;;17.55;3.38;;;;;;;8.72;100.00;98984.44;12193737;19;19928;-83
2022/11/24 01:15:56;;;;;;;13.15;3.00;;;;;;;8.81;100.00;99013.13;12215618;19;20034;-84
2022/11/24 01:19:58;;;;;;;9.80;3.67;;;;;;;8.84;100.00;99018.09;12196563;19;20006;-84
2022/11/24 01:24:00;;;;;;;9.98;2.95;;;;;;;8.83;100.00;99017.25;12218645;19;20007;-84
2022/11/24 01:28:01;;;;;;;15.50;3.20;;;;;;;8.82;100.00;99025.75;12216532;19;20044;-83
2022/11/24 01:32:03;;;;;;;12.45;3.20;;;;;;;8.78;100.00;99039.19;12196414;19;20074;-84
2022/11/24 01:36:05;;;;;;;14.82;2.80;;;;;;;8.75;100.00;99041.59;12215531;19;20018;-83
2022/11/24 01:40:08;;;;;;;9.77;2.87;;;;;;;8.73;100.00;99044.59;12222954;19;20003;-84
2022/11/24 01:44:20;;;;;;;11.32;3.05;;;;;;;8.66;100.00;99043.97;12204164;19;20072;-83
2022/11/24 01:48:40;;;;;;;14.03;2.93;;;;;;;8.61;100.00;99041.16;12212239;19;20035;-83
2022/11/24 01:52:46;;;;;;;14.90;3.47;;;;;;;8.53;100.00;99047.91;12194433;19;20006;-84
2022/11/24 01:56:52;;;;;;;13.98;3.22;;;;;;;8.50;100.00;99053.91;12218371;19;20508;-83
2022/11/24 02:00:54;;;;;;;10.88;3.17;;;;;;;8.55;100.00;99054.00;12218058;19;20006;-84
2022/11/24 02:05:02;;;;;;;14.10;3.77;;;;;;;8.60;100.00;99048.56;12203167;19;20006;-82
2022/11/24 02:09:16;;;;;;;12.65;3.13;;;;;;;8.61;100.00;99052.97;12269342;19;20023;-82
2022/11/24 02:13:18;;;;;;;12.15;2.75;;;;;;;8.63;100.00;99059.03;12202015;19;20042;-84
2022/11/24 02:17:20;;;;;;;15.17;3.53;;;;;;;8.63;100.00;99056.31;12216292;19;20034;-84
2022/11/24 02:21:22;;;;;;;12.45;3.10;;;;;;;8.60;100.00;99059.56;12217099;19;20639;-85
2022/11/24 02:25:34;;;;;;;9.27;2.63;;;;;;;8.56;100.00;99054.81;12193652;19;20370;-84
2022/11/24 02:29:36;;;;;;;11.38;2.97;;;;;;;8.51;100.00;99057.53;12217223;19;20006;-83
2022/11/24 02:33:38;;;;;;;17.03;2.90;;;;;;;8.48;100.00;99063.50;12214400;19;20002;-83
2022/11/24 02:37:40;;;;;;;10.50;3.25;;;;;;;8.43;100.00;99051.38;12188939;19;20618;-84
2022/11/24 02:42:03;;;;;;;16.30;3.65;;;;;;;8.39;100.00;99046.66;12213673;19;20014;-83
2022/11/24 02:46:05;;;;;;;14.55;3.50;;;;;;;8.33;100.00;99051.22;12214061;19;20357;-85
2022/11/24 02:50:07;;;;;;;13.82;3.67;;;;;;;8.31;100.00;99047.88;12193325;19;20022;-84
2022/11/24 02:54:09;;;;;;;15.52;3.50;;;;;;;8.30;100.00;99056.34;12210645;19;20039;-84
2022/11/24 02:58:11;;;;;;;19.15;3.38;;;;;;;8.27;100.00;99056.88;12214780;19;20035;-84
2022/11/24 03:02:12;;;;;;;10.50;3.05;;;;;;;8.24;100.00;99047.25;12190839;19;20006;-83
2022/11/24 03:06:14;;;;;;;20.08;4.35;;;;;;;8.23;100.00;99048.31;12208139;19;20002;-83
2022/11/24 03:10:16;;;;;;;9.88;3.53;;;;;;;8.29;100.00;99066.50;12191891;19;20006;-84
2022/11/24 03:14:17;;;;;;;11.68;4.05;;;;;;;8.38;100.00;99067.75;12209641;19;20390;-83
2022/11/24 03:18:19;;;;;;;12.00;3.22;;;;;;;8.43;100.00;99069.75;12208348;19;20015;-83
2022/11/24 03:22:20;;;;;;;15.18;3.78;;;;;;;8.43;100.00;99072.50;12189484;19;20034;-82
2022/11/24 03:26:24;;;;;;;14.95;3.35;;;;;;;8.47;100.00;99072.81;12211709;19;20036;-83
2022/11/24 03:30:26;;;;;;;14.13;3.77;;;;;;;8.49;100.00;99070.66;12212946;19;20038;-83
2022/11/24 03:34:29;;;;;;;16.48;3.40;;;;;;;8.47;100.00;99076.41;12187340;19;20020;-83
2022/11/24 03:38:31;;;;;;;11.50;3.00;;;;;;;8.42;100.00;99070.84;12211422;19;20007;-84
2022/11/24 03:42:33;;;;;;;7.65;2.90;;;;;;;8.45;100.00;99073.09;12210243;19;20011;-82
2022/11/24 03:46:37;;;;;;;10.82;3.10;;;;;;;8.42;100.00;99055.22;12201853;19;20384;-82
2022/11/24 03:50:39;;;;;;;15.85;3.28;;;;;;;8.40;100.00;99068.34;12221202;19;20015;-83
2022/11/24 03:54:41;;;;;;;16.70;2.97;;;;;;;8.37;100.00;99070.75;12211651;19;20782;-83
2022/11/24 03:58:43;;;;;;;14.20;3.00;;;;;;;8.40;100.00;99071.09;12190360;19;20010;-84
2022/11/24 04:02:44;;;;;;;14.45;3.28;;;;;;;8.47;100.00;99081.06;12209634;19;20031;-83
2022/11/24 04:06:46;;;;;;;18.40;3.58;;;;;;;8.56;100.00;99076.78;12210476;19;20602;-83
2022/11/24 04:10:50;;;;;;;11.55;2.75;;;;;;;8.65;100.00;99088.97;12189073;19;20365;-82
2022/11/24 04:14:51;;;;;;;18.48;2.80;;;;;;;8.72;100.00;99092.41;12206149;19;20468;-83
2022/11/24 04:18:53;;;;;;;14.32;3.45;;;;;;;8.79;100.00;99098.50;12218036;19;20011;-84
2022/11/24 04:22:54;;;;;;;16.67;3.53;;;;;;;8.85;100.00;99100.22;12208842;19;20014;-82
2022/11/24 04:26:56;;;;;;;13.60;2.97;;;;;;;8.96;100.00;99105.88;12231185;19;20099;-82
2022/11/24 04:31:02;;;;;;;15.00;3.05;;;;;;;9.00;100.00;99109.75;12231329;19;20006;-83
2022/11/24 04:35:03;;;;;;;14.27;2.92;;;;;;;9.06;100.00;99112.31;12203062;19;20002;-82
2022/11/24 04:39:05;;;;;;;13.45;2.38;;;;;;;9.12;100.00;99127.75;12228814;19;20079;-82
2022/11/24 04:43:27;;;;;;;15.20;3.35;;;;;;;9.15;100.00;99129.16;12209314;19;20358;-84
2022/11/24 04:47:29;;;;;;;14.10;3.05;;;;;;;9.23;100.00;99136.16;12229304;19;20014;-82
2022/11/24 04:51:30;;;;;;;14.70;3.03;;;;;;;9.26;100.00;99130.13;12227893;19;20018;-82
2022/11/24 04:55:32;;;;;;;11.63;2.53;;;;;;;9.29;100.00;99148.84;12206787;19;20468;-82
2022/11/24 04:59:33;;;;;;;14.30;2.45;;;;;;;9.30;100.00;99136.75;12229284;19;20030;-82
2022/11/24 05:03:35;;;;;;;13.80;2.55;;;;;;;9.30;100.00;99148.59;12227520;19;20023;-82
2022/11/24 05:07:37;;;;;;;11.75;3.13;;;;;;;9.35;100.00;99156.06;12204868;19;20038;-83
2022/11/24 05:11:38;;;;;;;10.13;2.90;;;;;;;9.34;100.00;99155.25;12226723;19;20085;-81
2022/11/24 05:15:41;;;;;;;6.93;2.40;;;;;;;9.38;100.00;99157.47;12225803;19;20010;-83
2022/11/24 05:19:43;;;;;;;17.40;3.30;;;;;;;9.38;100.00;99158.31;12201808;19;20018;-81
2022/11/24 05:23:44;;;;;;;14.80;3.10;;;;;;;9.35;100.00;99151.41;12226408;19;20009;-82
2022/11/24 05:27:46;;;;;;;10.75;3.30;;;;;;;9.39;100.00;99167.38;12225317;19;20011;-82
2022/11/24 05:31:48;;;;;;;7.80;3.13;;;;;;;9.38;100.00;99169.31;12192053;19;20039;-81
2022/11/24 05:35:50;;;;;;;13.77;4.20;;;;;;;9.41;100.00;99177.03;12212898;19;20014;-83
2022/11/24 05:39:53;;;;;;;10.98;3.38;;;;;;;9.42;100.00;99180.63;12215342;19;20002;-80
2022/11/24 05:43:55;;;;;;;18.35;2.80;;;;;;;9.43;100.00;99185.88;12192958;19;20015;-82
2022/11/24 05:48:03;;;;;;;10.98;2.75;;;;;;;9.39;100.00;99190.19;12211229;19;20461;-82
2022/11/24 05:52:04;;;;;;;15.68;3.55;;;;;;;9.43;100.00;99193.25;12212203;19;20038;-82
2022/11/24 05:56:06;;;;;;;14.93;3.35;;;;;;;9.44;100.00;99189.44;12191051;19;20002;-83
2022/11/24 06:00:09;;;;;;;13.20;2.75;;;;;;;9.45;100.00;99188.34;12215890;19;20015;-83
2022/11/24 06:04:14;;;;;;;15.25;3.88;;;;;;;9.42;100.00;99192.44;12212900;19;20011;-83
2022/11/24 06:08:16;;;;;;;18.05;2.53;;;;;;;9.42;100.00;99184.19;12215212;19;20384;-82
2022/11/24 06:12:17;;;;;;;18.33;3.50;;;;;;;9.42;100.00;99186.94;12214308;19;20039;-83
2022/11/24 06:16:19;;;;;;;13.85;3.08;;;;;;;9.49;100.00;99186.75;12190454;19;20031;-83
2022/11/24 06:20:22;;;;;;;14.60;2.85;;;;;;;9.52;100.00;99192.56;12212883;19;20010;-84
2022/11/24 06:24:31;;;;;;;12.05;3.38;;;;;;;9.56;100.00;99193.69;12213003;19;20010;-82
2022/11/24 06:28:34;;;;;;;15.27;3.75;;;;;;;9.58;100.00;99197.03;12191401;19;20030;-83
2022/11/24 06:32:36;;;;;;;14.88;1.95;;;;;;;9.59;100.00;99204.19;12208673;19;20105;-83
2022/11/24 06:36:38;;;;;;;21.35;4.10;;;;;;;9.58;100.00;99220.97;12211665;19;20015;-83
2022/11/24 06:40:39;;;;;;;14.03;3.03;;;;;;;9.56;100.00;99218.47;12192380;19;20015;-83
2022/11/24 06:44:41;;;;;;;11.93;3.08;;;;;;;9.52;100.00;99220.06;12209128;19;20010;-83
2022/11/24 06:48:43;;;;;;;12.80;2.95;;;;;;;9.49;100.00;99217.84;12208491;19;20010;-82
2022/11/24 06:52:45;;;;;;;15.63;2.85;;;;;;;9.47;100.00;99219.19;12165753;19;20536;-82
2022/11/24 06:56:48;;;;;;;15.30;3.13;;;;;;;9.47;100.00;99224.69;12245067;19;20006;-80
2022/11/24 07:00:53;;;;;;;14.95;3.05;;;;;;;9.45;100.00;99232.34;12274758;19;20006;-80
2022/11/24 07:04:54;;;;;;;11.07;3.22;;;;;;;9.44;100.00;99239.78;12241431;19;20027;-81
2022/11/24 07:08:56;;;;;;;13.48;2.88;;;;;;;9.40;100.00;99240.53;12266225;19;20007;-81
2022/11/24 07:12:58;;;;;;;17.50;3.70;;;;;;;9.40;100.00;99238.63;12252778;19;20042;-81
2022/11/24 07:17:01;;;;;;;18.00;3.80;;;;;;;9.43;100.00;99243.63;12203718;19;20002;-83
2022/11/24 07:21:04;;;;;;;18.77;3.97;;;;;;;9.44;100.00;99253.53;12222308;19;20017;-83
2022/11/24 07:25:08;;;;;;;17.15;3.42;;;;;;;9.42;100.00;99255.69;12222114;19;20014;-83
2022/11/24 07:29:10;;;;;;;17.60;3.55;;;;;;;9.45;100.00;99268.09;12200402;19;20011;-83
2022/11/24 07:33:12;;;;;;;15.00;2.55;;;;;;;9.45;100.00;99268.91;12216951;19;20381;-84
2022/11/24 07:37:14;;;;;;;14.40;3.47;;;;;;;9.47;100.00;99275.00;12218196;19;20034;-83
2022/11/24 07:41:18;;;;;;;15.27;3.42;;;;;;;9.49;100.00;99275.59;12197461;19;20060;-82
2022/11/24 07:45:20;;;;;;;14.25;2.40;;;;;;;9.47;100.00;99277.75;12216706;19;20031;-81
2022/11/24 07:49:22;;;;;;;18.27;3.33;;;;;;;9.48;100.00;99284.91;12200084;19;20018;-82
2022/11/24 07:53:23;;;;;;;11.02;2.63;;;;;;;9.53;100.00;99284.97;12213638;19;20027;-82
2022/11/24 07:57:27;;;;;;;17.50;4.15;;;;;;;9.58;100.00;99285.06;12214671;19;20014;-83
2022/11/24 08:01:29;;;;;;;15.25;2.95;;;;;;;9.67;100.00;99290.13;12191492;19;20010;-82
2022/11/24 08:05:31;;;;;;;9.52;2.40;;;;;;;9.68;100.00;99300.03;12209395;19;20116;-83
2022/11/24 08:09:32;;;;;;;16.42;2.63;;;;;;;9.68;100.00;99302.78;12215699;19;20017;-82
2022/11/24 08:13:35;;;;;;;11.00;2.45;;;;;;;9.66;100.00;99311.25;12189772;19;20011;-82
2022/11/24 08:17:37;;;;;;;13.07;3.00;;;;;;;9.64;100.00;99318.97;12211181;19;20058;-82
2022/11/24 08:21:39;;;;;;;12.27;2.87;;;;;;;9.61;100.00;99313.97;12212359;19;20369;-83
2022/11/24 08:25:40;;;;;;;8.18;2.38;;;;;;;9.63;100.00;99310.94;12187568;19;20031;-83
2022/11/24 08:29:42;;;;;;;9.93;2.33;;;;;;;9.70;100.00;99328.94;12213506;19;20011;-83
2022/11/24 08:33:44;;;;;;;9.38;3.13;;;;;;;9.74;100.00;99337.50;12208158;19;20007;-81
2022/11/24 08:37:46;;;;;;;13.00;2.67;;;;;;;9.75;100.00;99337.25;12187805;19;20088;-82
2022/11/24 08:41:48;;;;;;;14.33;2.53;;;;;;;9.92;100.00;99336.34;12211239;19;20010;-82
2022/11/24 08:45:51;;;;;;;8.68;2.55;;;;;;;10.12;100.00;99341.28;12211673;19;20329;-82
2022/11/24 08:49:52;;;;;;;12.90;2.95;;;;;;;10.18;100.00;99351.25;12189193;19;20015;-81
2022/11/24 08:53:55;;;;;;;10.43;3.03;;;;;;;10.24;100.00;99358.47;12209680;19;20010;-83
2022/11/24 08:57:57;;;;;;;11.77;2.40;;;;;;;10.35;100.00;99365.78;12209937;19;20007;-80
2022/11/24 09:01:59;;;;;;;11.40;2.20;;;;;;;10.42;100.00;99362.81;12187629;19;20035;-81
2022/11/24 09:06:01;;;;;;;10.68;2.28;;;;;;;10.46;100.00;99364.78;12209130;19;20407;-82
2022/11/24 09:10:03;;;;;;;13.32;2.67;;;;;;;10.51;100.00;99377.78;12221152;19;20010;-82
2022/11/24 09:14:05;;;;;;;13.93;2.83;;;;;;;10.54;100.00;99371.75;12196993;19;20019;-83
2022/11/24 09:18:06;;;;;;;6.82;2.63;;;;;;;10.53;100.00;99374.75;12217877;19;20003;-83
2022/11/24 09:22:08;;;;;;;11.05;3.03;;;;;;;10.55;100.00;99362.38;12221649;19;20069;-82
2022/11/24 09:26:17;;;;;;;11.00;2.60;;;;;;;10.64;100.00;99358.06;12199745;19;20011;-83
2022/11/24 09:30:19;;;;;;;9.60;2.30;;;;;;;10.72;100.00;99379.66;12220789;19;20038;-82
2022/11/24 09:34:21;;;;;;;10.85;2.92;;;;;;;10.83;100.00;99380.56;12196029;19;20047;-82
2022/11/24 09:38:23;;;;;;;15.27;3.70;;;;;;;10.88;100.00;99386.13;12218056;19;20011;-82
2022/11/24 09:42:43;;;;;;;11.88;2.97;;;;;;;10.87;100.00;99395.50;12220157;19;20070;-84
2022/11/24 09:47:32;;;;;;;15.77;2.95;;;;;;;10.83;100.00;99405.38;12194778;19;20030;-81
2022/11/24 09:51:37;;;;;;;10.40;2.70;;;;;;;10.82;100.00;99411.16;12216875;19;20018;-82
2022/11/24 09:55:41;;;;;;;14.60;3.05;;;;;;;10.95;100.00;99402.47;12196960;19;20027;-82
2022/11/24 09:59:43;;;;;;;9.18;2.60;;;;;;;11.02;100.00;99416.03;12215670;19;20017;-82
2022/11/24 10:03:48;;;;;;;11.25;2.08;;;;;;;10.98;100.00;99423.16;12217836;19;20010;-82
2022/11/24 10:08:02;;;;;;;10.10;2.67;;;;;;;10.95;100.00;99430.03;12195564;19;20010;-84
2022/11/24 10:12:10;;;;;;;11.00;2.20;;;;;;;11.08;100.00;99434.28;12216223;19;20031;-81
2022/11/24 10:16:13;;;;;;;9.63;2.67;;;;;;;11.15;100.00;99421.06;12214443;19;20014;-82
2022/11/24 10:20:23;;;;;;;8.57;2.83;;;;;;;11.23;100.00;99434.38;12192488;19;20030;-80
2022/11/24 10:24:44;;;;;;;9.35;2.80;;;;;;;11.38;100.00;99441.97;12213746;19;20114;-82
2022/11/24 10:28:54;;;;;;;13.75;2.05;;;;;;;11.62;100.00;99443.22;12193145;19;20011;-83
2022/11/24 10:33:18;;;;;;;13.55;3.20;;;;;;;11.73;100.00;99444.13;12213891;19;20022;-82
2022/11/24 10:37:32;;;;;;;10.05;2.42;;;;;;;11.71;100.00;99438.03;12191501;19;20355;-82
2022/11/24 10:41:57;;;;;;;11.15;2.22;;;;;;;11.75;100.00;99449.38;12213909;19;20078;-83
2022/11/24 10:46:15;;;;;;;11.45;2.20;;;;;;;11.80;100.00;99443.91;12215597;19;20010;-82
2022/11/24 10:50:35;;;;;;;11.02;2.33;;;;;;;11.88;100.00;99442.59;12196080;19;20078;-83
2022/11/24 10:54:53;;;;;;;8.90;2.30;;;;;;;11.88;100.00;99445.38;12213923;19;20010;-84
2022/11/24 10:58:54;;;;;;;8.73;1.98;;;;;;;11.85;100.00;99447.56;12193022;19;20066;-81
2022/11/24 11:03:21;;;;;;;8.45;1.75;;;;;;;11.73;100.00;99455.19;12211860;19;20512;-81
2022/11/24 11:07:25;;;;;;;16.35;3.05;;;;;;;11.80;100.00;99453.00;12189156;19;20027;-83
2022/11/24 11:11:28;;;;;;;12.00;2.13;;;;;;;11.84;100.00;99456.91;12208150;19;20015;-80
2022/11/24 11:15:30;;;;;;;14.02;3.30;;;;;;;11.84;100.00;99456.91;12214725;19;20018;-83
2022/11/24 11:19:37;;;;;;;11.13;2.28;;;;;;;11.78;100.00;99457.97;12192418;19;20480;-82
2022/11/24 11:24:02;;;;;;;9.25;1.90;;;;;;;11.76;100.00;99467.63;12211132;19;20005;-80
2022/11/24 11:28:22;;;;;;;11.57;2.63;;;;;;;11.74;100.00;99476.16;12210639;19;20006;-81
2022/11/24 11:32:25;;;;;;;6.32;1.95;;;;;;;11.77;100.00;99483.91;12189490;19;20664;-81
2022/11/24 11:36:50;;;;;;;6.68;2.13;;;;;;;11.79;100.00;99481.72;12210392;19;20014;-82
2022/11/24 11:40:52;;;;;;;16.83;2.33;;;;;;;11.81;100.00;99475.94;12193662;19;20014;-81
2022/11/24 11:45:02;;;;;;;9.67;2.00;;;;;;;11.84;100.00;99473.47;12209772;19;20023;-82
2022/11/24 11:49:04;;;;;;;16.63;2.38;;;;;;;11.84;100.00;99489.22;12215804;19;20055;-82
2022/11/24 11:53:35;;;;;;;7.82;1.90;;;;;;;11.86;100.00;99496.13;12190437;19;20013;-82
2022/11/24 11:57:54;;;;;;;8.32;1.60;;;;;;;11.88;100.00;99498.66;12213860;19;20034;-82
2022/11/24 12:01:59;;;;;;;9.60;2.20;;;;;;;12.10;100.00;99495.72;12189523;19;20116;-83
2022/11/24 12:06:37;;;;;;;11.77;1.92;;;;;;;12.44;99.28;99489.84;12258646;19;20010;-80
2022/11/24 12:10:47;;;;;;;9.38;1.80;;;;;;;12.56;98.34;99490.44;12219587;19;20022;-83
2022/11/24 12:15:14;;;;;;;9.77;2.13;;;;;;;12.52;94.93;99505.88;12215538;19;20010;-81
2022/11/24 12:19:44;;;;;;;8.38;1.80;;;;;;;12.48;95.46;99507.53;12216774;19;20029;-82
2022/11/24 12:24:01;;;;;;;8.57;2.13;;;;;;;12.42;94.78;99498.38;12195204;19;20034;-81
2022/11/24 12:28:19;;;;;;;12.60;2.75;;;;;;;12.36;95.03;99501.41;12217549;19;20468;-83
2022/11/24 12:32:46;;;;;;;5.50;1.77;;;;;;;12.23;94.87;99498.03;12191303;19;20710;-83
2022/11/24 12:37:26;;;;;;;12.30;2.55;;;;;;;12.28;95.77;99503.59;12212217;19;20011;-82
2022/11/24 12:41:46;;;;;;;12.23;1.80;;;;;;;12.84;94.79;99508.50;12199614;19;20002;-80
2022/11/24 12:46:03;;;;;;;8.43;2.58;;;;;;;13.20;93.63;99503.84;12225024;19;20014;-84
2022/11/24 12:50:08;;;;;;;9.73;1.90;;;;;;;13.45;91.41;99505.03;12205518;19;20039;-80
2022/11/24 12:54:13;;;;;;;7.43;2.05;;;;;;;13.42;89.29;99513.91;12224172;19;20011;-84
2022/11/24 12:58:40;;;;;;;10.60;1.65;;;;;;;13.25;88.39;99518.81;12225272;19;20062;-84
2022/11/24 13:03:18;;;;;;;12.60;2.25;;;;;;;13.08;87.56;99528.19;12201560;19;20031;-81
2022/11/24 13:07:42;;;;;;;11.02;2.05;;;;;;;12.91;88.49;99519.28;12213304;19;20015;-81
2022/11/24 13:12:04;;;;;;;8.82;1.65;;;;;;;12.73;88.26;99521.47;12275753;19;20018;-78
2022/11/24 13:16:12;;;;;;;5.78;1.55;;;;;;;12.60;89.26;99530.25;12256262;19;20040;-81
2022/11/24 13:20:39;;;;;;;7.35;1.88;;;;;;;12.50;89.14;99533.81;12202372;19;20014;-83
2022/11/24 13:24:41;;;;;;;9.90;1.80;;;;;;;12.45;89.05;99530.19;12222675;19;20017;-82
2022/11/24 13:29:03;;;;;;;7.75;1.90;;;;;;;12.39;89.34;99534.03;12201321;19;20007;-81
2022/11/24 13:33:31;;;;;;;10.30;2.88;;;;;;;12.40;89.84;99535.69;12221268;19;20032;-83
2022/11/24 13:37:32;;;;;;;7.40;2.30;;;;;;;12.63;89.95;99539.94;12200517;19;20010;-82
2022/11/24 13:41:39;;;;;;;9.75;3.15;;;;;;;12.83;88.52;99541.97;12221146;19;20010;-83
2022/11/24 13:45:41;;;;;;;7.20;1.98;;;;;;;12.88;87.65;99553.00;12227039;19;20030;-83
2022/11/24 13:49:45;;;;;;;7.78;2.03;;;;;;;12.83;87.37;99548.31;12208959;19;20022;-81
2022/11/24 13:53:49;;;;;;;10.25;1.70;;;;;;;12.71;86.96;99562.38;12227843;19;20007;-80
2022/11/24 13:57:55;;;;;;;12.02;2.33;;;;;;;12.60;87.54;99546.84;12234294;19;20006;-81
2022/11/24 14:01:57;;;;;;;9.23;2.58;;;;;;;12.63;87.81;99545.47;12203991;19;20015;-83
2022/11/24 14:06:00;;;;;;;9.47;2.83;;;;;;;12.65;87.24;99543.28;12228144;19;20823;-80
2022/11/24 14:10:02;;;;;;;9.18;1.90;;;;;;;12.52;87.84;99544.56;12237062;19;20007;-80
2022/11/24 14:14:19;;;;;;;6.93;1.73;;;;;;;12.48;87.35;99541.53;12201494;19;20018;-83
2022/11/24 14:18:21;;;;;;;10.68;2.30;;;;;;;12.49;87.00;99542.34;12216632;19;20030;-81
2022/11/24 14:22:35;;;;;;;13.82;2.70;;;;;;;12.51;85.57;99553.97;12199600;19;20011;-82
2022/11/24 14:26:40;;;;;;;9.35;2.33;;;;;;;12.39;85.79;99553.38;12221805;19;20014;-82
2022/11/24 14:30:42;;;;;;;8.07;1.95;;;;;;;12.26;86.16;99549.16;12218246;19;20378;-81
2022/11/24 14:34:43;;;;;;;5.38;1.77;;;;;;;12.10;86.24;99534.41;12197188;19;20010;-83
2022/11/24 14:38:47;;;;;;;8.38;2.08;;;;;;;11.94;86.74;99547.28;12221347;19;20006;-81
2022/11/24 14:42:50;;;;;;;14.82;2.50;;;;;;;11.80;86.89;99554.31;12218111;19;20010;-82
2022/11/24 14:47:03;;;;;;;8.13;2.80;;;;;;;11.71;87.53;99547.63;12195734;19;20074;-83
2022/11/24 14:51:05;;;;;;;8.15;2.60;;;;;;;11.58;87.90;99537.88;12216629;19;20011;-82
2022/11/24 14:55:25;;;;;;;10.17;2.00;;;;;;;11.46;88.34;99551.00;12218281;19;20417;-82
2022/11/24 14:59:30;;;;;;;8.43;2.10;;;;;;;11.37;88.91;99564.44;12196321;19;20019;-82
2022/11/24 15:03:33;;;;;;;9.35;2.88;;;;;;;11.25;89.20;99561.03;12220896;19;20022;-83
2022/11/24 15:07:36;;;;;;;10.20;2.40;;;;;;;11.12;89.88;99570.50;12197714;19;20019;-83
2022/11/24 15:11:38;;;;;;;7.45;2.08;;;;;;;11.01;90.02;99574.28;12208337;19;20396;-81
2022/11/24 15:15:48;;;;;;;5.88;2.17;;;;;;;10.87;90.46;99565.56;12218596;19;20099;-84
2022/11/24 15:20:01;;;;;;;14.23;2.42;;;;;;;10.72;90.99;99571.72;12194757;19;20532;-83
2022/11/24 15:24:15;;;;;;;14.18;2.75;;;;;;;10.57;91.47;99568.78;12217579;19;20023;-82
2022/11/24 15:28:18;;;;;;;9.48;2.85;;;;;;;10.45;91.79;99577.16;12206233;19;20031;-86
2022/11/24 15:32:20;;;;;;;6.82;2.28;;;;;;;10.31;92.16;99582.19;12215873;19;20638;-82
2022/11/24 15:36:22;;;;;;;8.10;2.38;;;;;;;10.22;92.71;99581.75;12214142;19;20011;-85
2022/11/24 15:40:23;;;;;;;10.32;2.08;;;;;;;10.12;93.19;99589.06;12194077;19;20010;-81
2022/11/24 15:44:25;;;;;;;10.82;2.75;;;;;;;10.03;93.91;99596.91;12214456;19;20038;-82
2022/11/24 15:48:28;;;;;;;17.42;4.38;;;;;;;9.92;94.34;99595.06;12215113;19;20059;-81
2022/11/24 15:52:30;;;;;;;10.93;2.75;;;;;;;9.79;94.90;99596.25;12185969;19;20006;-85
2022/11/24 15:56:35;;;;;;;10.27;2.63;;;;;;;9.70;95.39;99600.50;12215411;19;20574;-81
2022/11/24 16:00:37;;;;;;;11.82;2.53;;;;;;;9.57;96.06;99596.13;12218847;19;20034;-83
2022/11/24 16:04:40;;;;;;;13.52;2.58;;;;;;;9.49;96.48;99608.38;12191112;19;20015;-82
2022/11/24 16:08:42;;;;;;;10.15;2.33;;;;;;;9.39;97.27;99613.69;12211511;19;20007;-83
2022/11/24 16:12:43;;;;;;;12.00;3.22;;;;;;;9.35;98.21;99624.34;12205670;19;20014;-82
2022/11/24 16:16:45;;;;;;;6.95;2.33;;;;;;;9.39;98.83;99630.19;12189179;19;20019;-81
2022/11/24 16:20:47;;;;;;;6.53;1.90;;;;;;;9.42;99.61;99624.19;12211055;19;20007;-81
2022/11/24 16:24:48;;;;;;;12.65;3.03;;;;;;;9.43;99.84;99623.13;12217575;19;20018;-82
2022/11/24 16:28:50;;;;;;;11.23;2.97;;;;;;;9.39;100.00;99624.69;12189842;19;20015;-83
2022/11/24 16:32:52;;;;;;;10.82;3.20;;;;;;;9.28;100.00;99631.94;12212368;19;20007;-82
2022/11/24 16:36:54;;;;;;;13.50;2.95;;;;;;;9.18;100.00;99628.13;12209082;19;20700;-82
2022/11/24 16:40:55;;;;;;;10.52;2.85;;;;;;;9.06;100.00;99631.75;12190824;19;20014;-81
2022/11/24 16:44:57;;;;;;;12.20;2.97;;;;;;;8.96;100.00;99634.31;12210510;19;20019;-81
2022/11/24 16:48:59;;;;;;;8.15;2.88;;;;;;;8.87;100.00;99631.09;12211305;19;20010;-82
2022/11/24 16:53:01;;;;;;;13.43;2.95;;;;;;;8.77;100.00;99633.63;12185116;19;20066;-82
2022/11/24 16:57:03;;;;;;;9.98;2.78;;;;;;;8.69;100.00;99627.69;12209080;19;20026;-81
2022/11/24 17:01:07;;;;;;;13.88;2.60;;;;;;;8.62;100.00;99625.88;12210506;19;20003;-82
2022/11/24 17:05:08;;;;;;;9.02;2.40;;;;;;;8.57;100.00;99639.53;12220542;19;20002;-80
2022/11/24 17:09:10;;;;;;;9.43;2.90;;;;;;;8.54;100.00;99637.28;12248701;19;19999;-80
2022/11/24 17:13:13;;;;;;;9.75;2.70;;;;;;;8.51;100.00;99645.16;12212475;19;20501;-82
2022/11/24 17:17:14;;;;;;;10.13;3.47;;;;;;;8.46;100.00;99640.38;12188334;19;20010;-82
2022/11/24 17:21:21;;;;;;;7.93;3.78;;;;;;;8.40;100.00;99639.44;12213651;19;20014;-83
2022/11/24 17:25:22;;;;;;;11.30;4.10;;;;;;;8.33;100.00;99646.06;12192261;19;20038;-83
2022/11/24 17:29:24;;;;;;;10.75;3.92;;;;;;;8.24;100.00;99634.63;12222685;19;20010;-84
2022/11/24 17:33:27;;;;;;;9.73;3.55;;;;;;;8.19;100.00;99637.25;12218958;19;20067;-82
2022/11/24 17:37:30;;;;;;;11.32;3.63;;;;;;;8.14;100.00;99634.38;12194158;19;20130;-82
2022/11/24 17:41:32;;;;;;;11.00;3.22;;;;;;;8.09;100.00;99637.84;12221499;19;20010;-81
2022/11/24 17:45:34;;;;;;;8.77;2.70;;;;;;;8.03;100.00;99641.56;12221296;19;20034;-82
2022/11/24 17:49:36;;;;;;;12.50;2.90;;;;;;;8.01;100.00;99646.44;12202202;19;20010;-82
2022/11/24 17:53:40;;;;;;;9.77;3.67;;;;;;;8.00;100.00;99655.72;12225970;19;20027;-82
2022/11/24 17:57:41;;;;;;;13.50;3.75;;;;;;;7.98;100.00;99644.16;12220615;19;20011;-80
2022/11/24 18:01:43;;;;;;;13.65;2.80;;;;;;;7.96;100.00;99640.81;12197816;19;20011;-81
2022/11/24 18:05:45;;;;;;;12.90;2.70;;;;;;;7.91;100.00;99651.66;12223331;19;20107;-82
2022/11/24 18:09:46;;;;;;;12.70;3.55;;;;;;;7.89;100.00;99656.56;12220854;19;20075;-81
2022/11/24 18:13:48;;;;;;;10.65;2.85;;;;;;;7.87;100.00;99670.50;12196702;19;20014;-81
2022/11/24 18:18:01;;;;;;;11.32;2.75;;;;;;;7.88;100.00;99663.09;12217083;19;20011;-81
2022/11/24 18:22:03;;;;;;;12.10;3.10;;;;;;;7.87;100.00;99661.44;12221778;19;20010;-82
2022/11/24 18:26:05;;;;;;;13.07;2.83;;;;;;;7.89;100.00;99670.28;12197289;19;20388;-83
2022/11/24 18:30:07;;;;;;;9.97;2.70;;;;;;;7.91;100.00;99670.84;12219155;19;20014;-82
2022/11/24 18:34:23;;;;;;;11.02;3.45;;;;;;;7.92;100.00;99670.63;12218686;19;20366;-82
2022/11/24 18:38:27;;;;;;;14.57;3.40;;;;;;;7.94;100.00;99670.38;12195780;19;20042;-82
2022/11/24 18:42:29;;;;;;;11.13;3.60;;;;;;;7.97;100.00;99672.66;12216921;19;20014;-81
2022/11/24 18:46:37;;;;;;;9.05;3.22;;;;;;;7.96;100.00;99666.34;12217012;19;20490;-80
2022/11/24 18:50:39;;;;;;;10.52;3.35;;;;;;;7.96;100.00;99663.59;12219512;19;20305;-81
2022/11/24 18:54:40;;;;;;;10.57;3.95;;;;;;;7.96;100.00;99665.50;12216883;19;20406;-83
2022/11/24 18:58:42;;;;;;;13.80;4.72;;;;;;;7.97;100.00;99662.53;12195782;19;20487;-81